sensor_id;sensor_type;location;lat;lon;timestamp;P1;durP1;ratioP1;P2;durP2;ratioP2
49764;SDS011;35657;51.204;-4.130;2024-02-04T00:00:31;16.75;;;4.00;;
49764;SDS011;35657;51.204;-4.130;2024-02-04T00:02:57;4.28;;;2.53;;
49764;SDS011;35657;51.204;-4.130;2024-02-04T00:05:22;4.03;;;1.60;;
49764;SDS011;35657;51.204;-4.130;2024-02-04T00:07:48;7.45;;;2.53;;
49764;SDS011;35657;51.204;-4.130;2024-02-04T00:10:14;9.15;;;2.33;;
49764;SDS011;35657;51.204;-4.130;2024-02-04T00:12:42;15.13;;;3.50;;
49764;SDS011;35657;51.204;-4.130;2024-02-04T00:15:08;13.40;;;2.47;;
49764;SDS011;35657;51.204;-4.130;2024-02-04T00:17:34;8.50;;;2.67;;
49764;SDS011;35657;51.204;-4.130;2024-02-04T00:20:00;9.95;;;2.50;;
49764;SDS011;35657;51.204;-4.130;2024-02-04T00:22:27;14.70;;;2.90;;
49764;SDS011;35657;51.204;-4.130;2024-02-04T00:24:53;11.52;;;2.72;;
49764;SDS011;35657;51.204;-4.130;2024-02-04T00:27:19;9.27;;;3.03;;
49764;SDS011;35657;51.204;-4.130;2024-02-04T00:29:45;14.35;;;3.10;;
49764;SDS011;35657;51.204;-4.130;2024-02-04T00:32:11;10.68;;;3.03;;
49764;SDS011;35657;51.204;-4.130;2024-02-04T00:34:36;14.10;;;3.15;;
49764;SDS011;35657;51.204;-4.130;2024-02-04T00:37:02;10.90;;;2.65;;
49764;SDS011;35657;51.204;-4.130;2024-02-04T00:39:28;6.03;;;1.80;;
49764;SDS011;35657;51.204;-4.130;2024-02-04T00:41:54;13.63;;;3.53;;
49764;SDS011;35657;51.204;-4.130;2024-02-04T00:44:19;7.40;;;1.85;;
49764;SDS011;35657;51.204;-4.130;2024-02-04T00:46:45;8.20;;;2.63;;
49764;SDS011;35657;51.204;-4.130;2024-02-04T00:49:11;11.77;;;3.10;;
49764;SDS011;35657;51.204;-4.130;2024-02-04T00:51:37;4.05;;;2.05;;
49764;SDS011;35657;51.204;-4.130;2024-02-04T00:54:03;8.45;;;1.70;;
49764;SDS011;35657;51.204;-4.130;2024-02-04T00:56:31;5.40;;;2.30;;
49764;SDS011;35657;51.204;-4.130;2024-02-04T00:58:57;14.18;;;5.38;;
49764;SDS011;35657;51.204;-4.130;2024-02-04T01:01:23;9.45;;;4.82;;
49764;SDS011;35657;51.204;-4.130;2024-02-04T01:03:48;9.43;;;3.90;;
49764;SDS011;35657;51.204;-4.130;2024-02-04T01:06:14;10.07;;;5.13;;
49764;SDS011;35657;51.204;-4.130;2024-02-04T01:08:40;7.40;;;4.28;;
49764;SDS011;35657;51.204;-4.130;2024-02-04T01:11:06;18.98;;;9.80;;
49764;SDS011;35657;51.204;-4.130;2024-02-04T01:13:32;14.32;;;6.68;;
49764;SDS011;35657;51.204;-4.130;2024-02-04T01:15:58;10.32;;;4.93;;
49764;SDS011;35657;51.204;-4.130;2024-02-04T01:18:23;15.60;;;6.65;;
49764;SDS011;35657;51.204;-4.130;2024-02-04T01:20:49;8.00;;;2.90;;
49764;SDS011;35657;51.204;-4.130;2024-02-04T01:23:15;16.88;;;4.50;;
49764;SDS011;35657;51.204;-4.130;2024-02-04T01:25:44;6.63;;;3.88;;
49764;SDS011;35657;51.204;-4.130;2024-02-04T01:28:10;9.73;;;3.58;;
49764;SDS011;35657;51.204;-4.130;2024-02-04T01:30:36;11.07;;;2.90;;
49764;SDS011;35657;51.204;-4.130;2024-02-04T01:33:03;10.48;;;2.20;;
49764;SDS011;35657;51.204;-4.130;2024-02-04T01:35:28;10.43;;;2.70;;
49764;SDS011;35657;51.204;-4.130;2024-02-04T01:37:54;8.32;;;2.90;;
49764;SDS011;35657;51.204;-4.130;2024-02-04T01:40:20;6.65;;;2.13;;
49764;SDS011;35657;51.204;-4.130;2024-02-04T01:42:46;3.72;;;1.90;;
49764;SDS011;35657;51.204;-4.130;2024-02-04T01:45:12;6.10;;;1.88;;
49764;SDS011;35657;51.204;-4.130;2024-02-04T01:47:37;4.22;;;1.38;;
49764;SDS011;35657;51.204;-4.130;2024-02-04T01:50:03;6.60;;;1.88;;
49764;SDS011;35657;51.204;-4.130;2024-02-04T01:52:31;3.78;;;1.90;;
49764;SDS011;35657;51.204;-4.130;2024-02-04T01:54:59;6.15;;;2.47;;
49764;SDS011;35657;51.204;-4.130;2024-02-04T01:57:26;19.73;;;3.33;;
49764;SDS011;35657;51.204;-4.130;2024-02-04T01:59:52;10.48;;;2.70;;
49764;SDS011;35657;51.204;-4.130;2024-02-04T02:02:21;9.13;;;2.08;;
49764;SDS011;35657;51.204;-4.130;2024-02-04T02:04:47;13.02;;;3.42;;
49764;SDS011;35657;51.204;-4.130;2024-02-04T02:07:13;9.02;;;2.40;;
49764;SDS011;35657;51.204;-4.130;2024-02-04T02:09:41;18.35;;;2.28;;
49764;SDS011;35657;51.204;-4.130;2024-02-04T02:12:09;5.68;;;3.10;;
49764;SDS011;35657;51.204;-4.130;2024-02-04T02:14:49;11.38;;;3.38;;
49764;SDS011;35657;51.204;-4.130;2024-02-04T02:17:37;11.63;;;2.60;;
49764;SDS011;35657;51.204;-4.130;2024-02-04T02:20:16;11.70;;;3.15;;
49764;SDS011;35657;51.204;-4.130;2024-02-04T02:23:30;14.88;;;3.10;;
49764;SDS011;35657;51.204;-4.130;2024-02-04T02:25:38;5.88;;;2.17;;
49764;SDS011;35657;51.204;-4.130;2024-02-04T02:28:04;13.60;;;4.55;;
49764;SDS011;35657;51.204;-4.130;2024-02-04T02:30:31;7.63;;;2.60;;
49764;SDS011;35657;51.204;-4.130;2024-02-04T02:32:57;10.20;;;3.60;;
49764;SDS011;35657;51.204;-4.130;2024-02-04T02:35:26;12.98;;;2.40;;
49764;SDS011;35657;51.204;-4.130;2024-02-04T02:37:56;15.65;;;3.35;;
49764;SDS011;35657;51.204;-4.130;2024-02-04T02:40:32;7.90;;;3.00;;
49764;SDS011;35657;51.204;-4.130;2024-02-04T02:43:00;10.93;;;2.10;;
49764;SDS011;35657;51.204;-4.130;2024-02-04T02:45:28;5.28;;;1.80;;
49764;SDS011;35657;51.204;-4.130;2024-02-04T02:47:54;14.77;;;2.00;;
49764;SDS011;35657;51.204;-4.130;2024-02-04T02:50:20;7.40;;;2.55;;
49764;SDS011;35657;51.204;-4.130;2024-02-04T02:52:47;14.48;;;2.80;;
49764;SDS011;35657;51.204;-4.130;2024-02-04T02:55:12;11.55;;;2.88;;
49764;SDS011;35657;51.204;-4.130;2024-02-04T02:57:38;4.13;;;2.42;;
49764;SDS011;35657;51.204;-4.130;2024-02-04T03:00:04;21.92;;;5.60;;
49764;SDS011;35657;51.204;-4.130;2024-02-04T03:02:31;9.63;;;3.42;;
49764;SDS011;35657;51.204;-4.130;2024-02-04T03:04:57;12.98;;;2.33;;
49764;SDS011;35657;51.204;-4.130;2024-02-04T03:07:23;14.20;;;2.90;;
49764;SDS011;35657;51.204;-4.130;2024-02-04T03:09:49;12.05;;;2.67;;
49764;SDS011;35657;51.204;-4.130;2024-02-04T03:12:14;14.90;;;4.25;;
49764;SDS011;35657;51.204;-4.130;2024-02-04T03:14:40;16.27;;;3.42;;
49764;SDS011;35657;51.204;-4.130;2024-02-04T03:17:06;14.30;;;4.65;;
49764;SDS011;35657;51.204;-4.130;2024-02-04T03:19:32;21.58;;;4.75;;
49764;SDS011;35657;51.204;-4.130;2024-02-04T03:21:57;9.85;;;2.75;;
49764;SDS011;35657;51.204;-4.130;2024-02-04T03:24:23;19.08;;;5.63;;
49764;SDS011;35657;51.204;-4.130;2024-02-04T03:26:49;12.30;;;3.58;;
49764;SDS011;35657;51.204;-4.130;2024-02-04T03:29:15;4.47;;;1.92;;
49764;SDS011;35657;51.204;-4.130;2024-02-04T03:31:40;11.98;;;3.72;;
49764;SDS011;35657;51.204;-4.130;2024-02-04T03:34:06;15.82;;;2.38;;
49764;SDS011;35657;51.204;-4.130;2024-02-04T03:36:32;24.77;;;4.88;;
49764;SDS011;35657;51.204;-4.130;2024-02-04T03:38:58;13.80;;;3.53;;
49764;SDS011;35657;51.204;-4.130;2024-02-04T03:41:24;15.05;;;3.13;;
49764;SDS011;35657;51.204;-4.130;2024-02-04T03:43:50;28.45;;;3.97;;
49764;SDS011;35657;51.204;-4.130;2024-02-04T03:46:16;14.18;;;3.65;;
49764;SDS011;35657;51.204;-4.130;2024-02-04T03:48:42;21.20;;;4.68;;
49764;SDS011;35657;51.204;-4.130;2024-02-04T03:51:08;16.92;;;5.20;;
49764;SDS011;35657;51.204;-4.130;2024-02-04T03:53:42;22.40;;;4.05;;
49764;SDS011;35657;51.204;-4.130;2024-02-04T03:56:08;13.88;;;4.57;;
49764;SDS011;35657;51.204;-4.130;2024-02-04T03:58:37;16.48;;;4.20;;
49764;SDS011;35657;51.204;-4.130;2024-02-04T04:01:02;15.25;;;2.92;;
49764;SDS011;35657;51.204;-4.130;2024-02-04T04:03:28;24.75;;;2.55;;
49764;SDS011;35657;51.204;-4.130;2024-02-04T04:05:54;9.25;;;2.90;;
49764;SDS011;35657;51.204;-4.130;2024-02-04T04:08:20;11.68;;;3.20;;
49764;SDS011;35657;51.204;-4.130;2024-02-04T04:10:46;9.65;;;2.42;;
49764;SDS011;35657;51.204;-4.130;2024-02-04T04:13:12;11.65;;;3.58;;
49764;SDS011;35657;51.204;-4.130;2024-02-04T04:15:38;10.88;;;2.20;;
49764;SDS011;35657;51.204;-4.130;2024-02-04T04:18:07;4.57;;;2.40;;
49764;SDS011;35657;51.204;-4.130;2024-02-04T04:20:33;7.90;;;2.40;;
49764;SDS011;35657;51.204;-4.130;2024-02-04T04:22:58;5.47;;;1.80;;
49764;SDS011;35657;51.204;-4.130;2024-02-04T04:25:24;16.05;;;2.83;;
49764;SDS011;35657;51.204;-4.130;2024-02-04T04:27:50;8.75;;;3.03;;
49764;SDS011;35657;51.204;-4.130;2024-02-04T04:30:16;9.48;;;1.35;;
49764;SDS011;35657;51.204;-4.130;2024-02-04T04:32:41;10.60;;;1.85;;
49764;SDS011;35657;51.204;-4.130;2024-02-04T04:35:07;11.63;;;2.25;;
49764;SDS011;35657;51.204;-4.130;2024-02-04T04:37:33;14.00;;;1.98;;
49764;SDS011;35657;51.204;-4.130;2024-02-04T04:39:59;3.28;;;1.60;;
49764;SDS011;35657;51.204;-4.130;2024-02-04T04:42:24;7.03;;;2.00;;
49764;SDS011;35657;51.204;-4.130;2024-02-04T04:44:50;15.27;;;7.45;;
49764;SDS011;35657;51.204;-4.130;2024-02-04T04:47:16;16.65;;;7.20;;
49764;SDS011;35657;51.204;-4.130;2024-02-04T04:49:42;11.90;;;6.60;;
49764;SDS011;35657;51.204;-4.130;2024-02-04T04:52:08;16.33;;;8.20;;
49764;SDS011;35657;51.204;-4.130;2024-02-04T04:54:34;22.92;;;6.10;;
49764;SDS011;35657;51.204;-4.130;2024-02-04T04:56:59;11.95;;;6.78;;
49764;SDS011;35657;51.204;-4.130;2024-02-04T04:59:26;16.13;;;7.95;;
49764;SDS011;35657;51.204;-4.130;2024-02-04T05:01:51;13.20;;;4.05;;
49764;SDS011;35657;51.204;-4.130;2024-02-04T05:04:17;8.23;;;4.30;;
49764;SDS011;35657;51.204;-4.130;2024-02-04T05:06:48;16.40;;;4.65;;
49764;SDS011;35657;51.204;-4.130;2024-02-04T05:09:14;9.45;;;3.58;;
49764;SDS011;35657;51.204;-4.130;2024-02-04T05:11:40;6.55;;;3.33;;
49764;SDS011;35657;51.204;-4.130;2024-02-04T05:14:05;9.52;;;4.15;;
49764;SDS011;35657;51.204;-4.130;2024-02-04T05:16:31;7.18;;;2.25;;
49764;SDS011;35657;51.204;-4.130;2024-02-04T05:18:57;8.32;;;3.03;;
49764;SDS011;35657;51.204;-4.130;2024-02-04T05:21:23;9.15;;;2.03;;
49764;SDS011;35657;51.204;-4.130;2024-02-04T05:23:49;8.80;;;2.63;;
49764;SDS011;35657;51.204;-4.130;2024-02-04T05:26:17;7.13;;;2.35;;
49764;SDS011;35657;51.204;-4.130;2024-02-04T05:28:43;12.70;;;3.85;;
49764;SDS011;35657;51.204;-4.130;2024-02-04T05:31:09;12.13;;;3.72;;
49764;SDS011;35657;51.204;-4.130;2024-02-04T05:33:35;10.55;;;2.85;;
49764;SDS011;35657;51.204;-4.130;2024-02-04T05:36:01;7.20;;;2.65;;
49764;SDS011;35657;51.204;-4.130;2024-02-04T05:38:27;4.95;;;2.03;;
49764;SDS011;35657;51.204;-4.130;2024-02-04T05:40:52;6.07;;;2.03;;
49764;SDS011;35657;51.204;-4.130;2024-02-04T05:43:18;17.55;;;2.92;;
49764;SDS011;35657;51.204;-4.130;2024-02-04T05:45:44;10.00;;;2.92;;
49764;SDS011;35657;51.204;-4.130;2024-02-04T05:48:10;14.45;;;3.13;;
49764;SDS011;35657;51.204;-4.130;2024-02-04T05:50:36;7.15;;;2.30;;
49764;SDS011;35657;51.204;-4.130;2024-02-04T05:53:02;5.82;;;1.58;;
49764;SDS011;35657;51.204;-4.130;2024-02-04T05:55:28;6.90;;;2.90;;
49764;SDS011;35657;51.204;-4.130;2024-02-04T05:57:54;10.02;;;2.55;;
49764;SDS011;35657;51.204;-4.130;2024-02-04T06:00:20;8.88;;;2.67;;
49764;SDS011;35657;51.204;-4.130;2024-02-04T06:02:46;13.18;;;3.53;;
49764;SDS011;35657;51.204;-4.130;2024-02-04T06:05:12;9.00;;;3.58;;
49764;SDS011;35657;51.204;-4.130;2024-02-04T06:07:39;9.05;;;2.28;;
49764;SDS011;35657;51.204;-4.130;2024-02-04T06:10:08;7.43;;;1.80;;
49764;SDS011;35657;51.204;-4.130;2024-02-04T06:12:34;8.88;;;2.42;;
49764;SDS011;35657;51.204;-4.130;2024-02-04T06:15:00;9.45;;;2.78;;
49764;SDS011;35657;51.204;-4.130;2024-02-04T06:17:26;6.28;;;2.00;;
49764;SDS011;35657;51.204;-4.130;2024-02-04T06:19:51;6.32;;;1.75;;
49764;SDS011;35657;51.204;-4.130;2024-02-04T06:22:17;16.50;;;2.53;;
49764;SDS011;35657;51.204;-4.130;2024-02-04T06:24:43;12.27;;;4.78;;
49764;SDS011;35657;51.204;-4.130;2024-02-04T06:27:10;13.20;;;3.55;;
49764;SDS011;35657;51.204;-4.130;2024-02-04T06:29:36;8.18;;;1.85;;
49764;SDS011;35657;51.204;-4.130;2024-02-04T06:32:04;16.15;;;3.58;;
49764;SDS011;35657;51.204;-4.130;2024-02-04T06:34:31;16.80;;;3.85;;
49764;SDS011;35657;51.204;-4.130;2024-02-04T06:36:57;11.52;;;2.67;;
49764;SDS011;35657;51.204;-4.130;2024-02-04T06:39:23;6.18;;;3.08;;
49764;SDS011;35657;51.204;-4.130;2024-02-04T06:41:48;6.57;;;3.25;;
49764;SDS011;35657;51.204;-4.130;2024-02-04T06:44:14;11.88;;;2.15;;
49764;SDS011;35657;51.204;-4.130;2024-02-04T06:46:40;14.18;;;2.70;;
49764;SDS011;35657;51.204;-4.130;2024-02-04T06:49:06;11.23;;;2.90;;
49764;SDS011;35657;51.204;-4.130;2024-02-04T06:51:32;15.43;;;3.15;;
49764;SDS011;35657;51.204;-4.130;2024-02-04T06:53:58;12.38;;;3.45;;
49764;SDS011;35657;51.204;-4.130;2024-02-04T06:56:24;9.50;;;3.55;;
49764;SDS011;35657;51.204;-4.130;2024-02-04T06:58:50;12.50;;;3.50;;
49764;SDS011;35657;51.204;-4.130;2024-02-04T07:01:16;11.20;;;2.80;;
49764;SDS011;35657;51.204;-4.130;2024-02-04T07:03:41;13.40;;;3.22;;
49764;SDS011;35657;51.204;-4.130;2024-02-04T07:06:07;25.25;;;4.70;;
49764;SDS011;35657;51.204;-4.130;2024-02-04T07:08:33;14.43;;;3.13;;
49764;SDS011;35657;51.204;-4.130;2024-02-04T07:10:59;16.77;;;3.42;;
49764;SDS011;35657;51.204;-4.130;2024-02-04T07:13:25;13.00;;;3.13;;
49764;SDS011;35657;51.204;-4.130;2024-02-04T07:15:51;14.32;;;2.83;;
49764;SDS011;35657;51.204;-4.130;2024-02-04T07:18:16;13.52;;;2.60;;
49764;SDS011;35657;51.204;-4.130;2024-02-04T07:20:46;5.93;;;2.28;;
49764;SDS011;35657;51.204;-4.130;2024-02-04T07:23:13;12.07;;;2.90;;
49764;SDS011;35657;51.204;-4.130;2024-02-04T07:25:38;7.43;;;2.25;;
49764;SDS011;35657;51.204;-4.130;2024-02-04T07:28:04;11.07;;;3.22;;
49764;SDS011;35657;51.204;-4.130;2024-02-04T07:30:30;14.82;;;3.67;;
49764;SDS011;35657;51.204;-4.130;2024-02-04T07:32:56;15.77;;;4.50;;
49764;SDS011;35657;51.204;-4.130;2024-02-04T07:35:23;10.25;;;2.13;;
49764;SDS011;35657;51.204;-4.130;2024-02-04T07:37:49;20.70;;;3.33;;
49764;SDS011;35657;51.204;-4.130;2024-02-04T07:40:17;15.00;;;4.13;;
49764;SDS011;35657;51.204;-4.130;2024-02-04T07:42:42;14.60;;;3.35;;
49764;SDS011;35657;51.204;-4.130;2024-02-04T07:45:08;23.40;;;5.18;;
49764;SDS011;35657;51.204;-4.130;2024-02-04T07:47:35;11.50;;;2.97;;
49764;SDS011;35657;51.204;-4.130;2024-02-04T07:50:01;18.85;;;3.47;;
49764;SDS011;35657;51.204;-4.130;2024-02-04T07:52:28;22.10;;;3.58;;
49764;SDS011;35657;51.204;-4.130;2024-02-04T07:54:54;13.27;;;3.83;;
49764;SDS011;35657;51.204;-4.130;2024-02-04T07:57:19;17.65;;;3.95;;
49764;SDS011;35657;51.204;-4.130;2024-02-04T07:59:45;19.77;;;4.28;;
49764;SDS011;35657;51.204;-4.130;2024-02-04T08:02:11;26.50;;;3.83;;
49764;SDS011;35657;51.204;-4.130;2024-02-04T08:04:39;16.35;;;3.88;;
49764;SDS011;35657;51.204;-4.130;2024-02-04T08:07:06;13.02;;;2.28;;
49764;SDS011;35657;51.204;-4.130;2024-02-04T08:09:32;15.57;;;2.97;;
49764;SDS011;35657;51.204;-4.130;2024-02-04T08:11:58;20.73;;;4.72;;
49764;SDS011;35657;51.204;-4.130;2024-02-04T08:14:23;15.55;;;4.22;;
49764;SDS011;35657;51.204;-4.130;2024-02-04T08:16:49;11.65;;;2.55;;
49764;SDS011;35657;51.204;-4.130;2024-02-04T08:19:15;14.55;;;5.38;;
49764;SDS011;35657;51.204;-4.130;2024-02-04T08:21:41;14.40;;;3.53;;
49764;SDS011;35657;51.204;-4.130;2024-02-04T08:24:07;10.60;;;3.25;;
49764;SDS011;35657;51.204;-4.130;2024-02-04T08:26:33;12.50;;;3.63;;
49764;SDS011;35657;51.204;-4.130;2024-02-04T08:28:59;12.98;;;4.75;;
49764;SDS011;35657;51.204;-4.130;2024-02-04T08:31:24;33.05;;;5.22;;
49764;SDS011;35657;51.204;-4.130;2024-02-04T08:33:51;14.63;;;3.22;;
49764;SDS011;35657;51.204;-4.130;2024-02-04T08:36:18;12.13;;;4.05;;
49764;SDS011;35657;51.204;-4.130;2024-02-04T08:38:44;10.02;;;2.97;;
49764;SDS011;35657;51.204;-4.130;2024-02-04T08:41:09;13.57;;;4.15;;
49764;SDS011;35657;51.204;-4.130;2024-02-04T08:43:35;14.48;;;3.33;;
49764;SDS011;35657;51.204;-4.130;2024-02-04T08:46:01;10.68;;;2.58;;
49764;SDS011;35657;51.204;-4.130;2024-02-04T08:48:27;19.85;;;4.38;;
49764;SDS011;35657;51.204;-4.130;2024-02-04T08:50:53;17.05;;;4.72;;
49764;SDS011;35657;51.204;-4.130;2024-02-04T08:53:20;12.23;;;3.22;;
49764;SDS011;35657;51.204;-4.130;2024-02-04T08:55:46;15.00;;;4.28;;
49764;SDS011;35657;51.204;-4.130;2024-02-04T08:58:12;14.40;;;3.92;;
49764;SDS011;35657;51.204;-4.130;2024-02-04T09:00:38;8.88;;;2.58;;
49764;SDS011;35657;51.204;-4.130;2024-02-04T09:03:04;9.30;;;3.78;;
49764;SDS011;35657;51.204;-4.130;2024-02-04T09:05:29;8.63;;;2.72;;
49764;SDS011;35657;51.204;-4.130;2024-02-04T09:07:55;7.38;;;2.20;;
49764;SDS011;35657;51.204;-4.130;2024-02-04T09:10:21;12.52;;;3.97;;
49764;SDS011;35657;51.204;-4.130;2024-02-04T09:12:47;8.13;;;2.80;;
49764;SDS011;35657;51.204;-4.130;2024-02-04T09:15:13;9.48;;;3.35;;
49764;SDS011;35657;51.204;-4.130;2024-02-04T09:17:40;14.20;;;3.97;;
49764;SDS011;35657;51.204;-4.130;2024-02-04T09:20:06;15.20;;;4.18;;
49764;SDS011;35657;51.204;-4.130;2024-02-04T09:22:32;10.27;;;4.22;;
49764;SDS011;35657;51.204;-4.130;2024-02-04T09:24:58;20.08;;;4.90;;
49764;SDS011;35657;51.204;-4.130;2024-02-04T09:27:24;16.27;;;4.50;;
49764;SDS011;35657;51.204;-4.130;2024-02-04T09:29:50;13.27;;;3.20;;
49764;SDS011;35657;51.204;-4.130;2024-02-04T09:32:17;11.90;;;3.78;;
49764;SDS011;35657;51.204;-4.130;2024-02-04T09:34:43;6.55;;;2.28;;
49764;SDS011;35657;51.204;-4.130;2024-02-04T09:37:08;11.30;;;4.22;;
49764;SDS011;35657;51.204;-4.130;2024-02-04T09:39:34;8.13;;;2.80;;
49764;SDS011;35657;51.204;-4.130;2024-02-04T09:42:01;16.77;;;3.53;;
49764;SDS011;35657;51.204;-4.130;2024-02-04T09:44:27;21.10;;;3.95;;
49764;SDS011;35657;51.204;-4.130;2024-02-04T09:46:53;17.38;;;3.92;;
49764;SDS011;35657;51.204;-4.130;2024-02-04T09:49:20;9.02;;;2.83;;
49764;SDS011;35657;51.204;-4.130;2024-02-04T09:51:47;13.43;;;3.95;;
49764;SDS011;35657;51.204;-4.130;2024-02-04T09:54:13;5.07;;;2.03;;
49764;SDS011;35657;51.204;-4.130;2024-02-04T09:56:41;17.05;;;4.55;;
49764;SDS011;35657;51.204;-4.130;2024-02-04T09:59:07;9.88;;;3.85;;
49764;SDS011;35657;51.204;-4.130;2024-02-04T10:01:33;8.18;;;2.50;;
49764;SDS011;35657;51.204;-4.130;2024-02-04T10:04:01;10.32;;;2.20;;
49764;SDS011;35657;51.204;-4.130;2024-02-04T10:06:27;9.15;;;2.20;;
49764;SDS011;35657;51.204;-4.130;2024-02-04T10:08:53;6.93;;;2.80;;
49764;SDS011;35657;51.204;-4.130;2024-02-04T10:11:18;14.75;;;3.70;;
49764;SDS011;35657;51.204;-4.130;2024-02-04T10:13:45;10.93;;;2.80;;
49764;SDS011;35657;51.204;-4.130;2024-02-04T10:16:12;7.18;;;1.88;;
49764;SDS011;35657;51.204;-4.130;2024-02-04T10:18:42;15.80;;;2.97;;
49764;SDS011;35657;51.204;-4.130;2024-02-04T10:21:17;12.60;;;3.60;;
49764;SDS011;35657;51.204;-4.130;2024-02-04T10:23:45;11.73;;;3.63;;
49764;SDS011;35657;51.204;-4.130;2024-02-04T10:26:14;17.10;;;3.30;;
49764;SDS011;35657;51.204;-4.130;2024-02-04T10:28:40;11.63;;;3.15;;
49764;SDS011;35657;51.204;-4.130;2024-02-04T10:31:09;12.45;;;3.78;;
49764;SDS011;35657;51.204;-4.130;2024-02-04T10:33:38;3.63;;;1.88;;
49764;SDS011;35657;51.204;-4.130;2024-02-04T10:36:04;13.40;;;3.08;;
49764;SDS011;35657;51.204;-4.130;2024-02-04T10:38:31;5.38;;;2.40;;
49764;SDS011;35657;51.204;-4.130;2024-02-04T10:40:59;10.52;;;2.53;;
49764;SDS011;35657;51.204;-4.130;2024-02-04T10:43:31;14.80;;;2.72;;
49764;SDS011;35657;51.204;-4.130;2024-02-04T10:46:01;16.52;;;3.45;;
49764;SDS011;35657;51.204;-4.130;2024-02-04T10:48:34;5.30;;;2.20;;
49764;SDS011;35657;51.204;-4.130;2024-02-04T10:51:09;14.73;;;2.97;;
49764;SDS011;35657;51.204;-4.130;2024-02-04T10:53:39;13.15;;;2.00;;
49764;SDS011;35657;51.204;-4.130;2024-02-04T10:56:13;10.85;;;3.28;;
49764;SDS011;35657;51.204;-4.130;2024-02-04T10:58:44;10.32;;;2.80;;
49764;SDS011;35657;51.204;-4.130;2024-02-04T11:01:12;8.38;;;4.47;;
49764;SDS011;35657;51.204;-4.130;2024-02-04T11:03:39;14.93;;;6.70;;
49764;SDS011;35657;51.204;-4.130;2024-02-04T11:06:06;14.77;;;4.88;;
49764;SDS011;35657;51.204;-4.130;2024-02-04T11:08:34;21.20;;;6.90;;
49764;SDS011;35657;51.204;-4.130;2024-02-04T11:11:00;20.20;;;6.38;;
49764;SDS011;35657;51.204;-4.130;2024-02-04T11:13:26;13.05;;;6.05;;
49764;SDS011;35657;51.204;-4.130;2024-02-04T11:15:55;17.30;;;7.38;;
49764;SDS011;35657;51.204;-4.130;2024-02-04T11:26:34;36.15;;;11.02;;
49764;SDS011;35657;51.204;-4.130;2024-02-04T11:29:03;15.93;;;7.00;;
49764;SDS011;35657;51.204;-4.130;2024-02-04T11:31:29;19.02;;;7.63;;
49764;SDS011;35657;51.204;-4.130;2024-02-04T11:33:55;17.17;;;7.68;;
49764;SDS011;35657;51.204;-4.130;2024-02-04T11:36:25;23.13;;;11.10;;
49764;SDS011;35657;51.204;-4.130;2024-02-04T11:38:51;15.90;;;7.43;;
49764;SDS011;35657;51.204;-4.130;2024-02-04T11:41:24;19.88;;;7.63;;
49764;SDS011;35657;51.204;-4.130;2024-02-04T11:44:00;15.05;;;6.35;;
49764;SDS011;35657;51.204;-4.130;2024-02-04T11:46:30;12.70;;;5.75;;
49764;SDS011;35657;51.204;-4.130;2024-02-04T11:48:58;21.55;;;7.40;;
49764;SDS011;35657;51.204;-4.130;2024-02-04T11:51:24;15.82;;;5.00;;
49764;SDS011;35657;51.204;-4.130;2024-02-04T11:53:50;13.45;;;3.47;;
49764;SDS011;35657;51.204;-4.130;2024-02-04T11:56:17;11.88;;;4.10;;
49764;SDS011;35657;51.204;-4.130;2024-02-04T11:58:44;13.35;;;3.65;;
49764;SDS011;35657;51.204;-4.130;2024-02-04T12:01:10;12.23;;;3.47;;
49764;SDS011;35657;51.204;-4.130;2024-02-04T12:03:36;8.65;;;3.78;;
49764;SDS011;35657;51.204;-4.130;2024-02-04T12:06:02;8.40;;;3.58;;
49764;SDS011;35657;51.204;-4.130;2024-02-04T12:08:29;12.27;;;3.67;;
49764;SDS011;35657;51.204;-4.130;2024-02-04T12:10:57;18.88;;;4.38;;
49764;SDS011;35657;51.204;-4.130;2024-02-04T12:13:24;15.27;;;3.92;;
49764;SDS011;35657;51.204;-4.130;2024-02-04T12:15:50;12.65;;;3.30;;
49764;SDS011;35657;51.204;-4.130;2024-02-04T12:18:16;17.50;;;4.10;;
49764;SDS011;35657;51.204;-4.130;2024-02-04T12:20:45;20.45;;;5.25;;
49764;SDS011;35657;51.204;-4.130;2024-02-04T12:23:15;15.95;;;3.15;;
49764;SDS011;35657;51.204;-4.130;2024-02-04T12:25:42;9.48;;;2.35;;
49764;SDS011;35657;51.204;-4.130;2024-02-04T12:28:08;5.28;;;2.53;;
49764;SDS011;35657;51.204;-4.130;2024-02-04T12:30:34;3.75;;;2.28;;
49764;SDS011;35657;51.204;-4.130;2024-02-04T12:33:01;16.77;;;5.85;;
49764;SDS011;35657;51.204;-4.130;2024-02-04T12:35:29;17.55;;;7.47;;
49764;SDS011;35657;51.204;-4.130;2024-02-04T12:37:56;20.27;;;4.93;;
49764;SDS011;35657;51.204;-4.130;2024-02-04T12:40:23;11.70;;;3.55;;
49764;SDS011;35657;51.204;-4.130;2024-02-04T12:42:59;9.35;;;4.00;;
49764;SDS011;35657;51.204;-4.130;2024-02-04T12:45:29;14.25;;;5.32;;
49764;SDS011;35657;51.204;-4.130;2024-02-04T12:47:56;7.32;;;2.67;;
49764;SDS011;35657;51.204;-4.130;2024-02-04T12:50:23;29.77;;;7.80;;
49764;SDS011;35657;51.204;-4.130;2024-02-04T12:52:50;20.98;;;6.32;;
49764;SDS011;35657;51.204;-4.130;2024-02-04T12:55:34;12.38;;;3.40;;
49764;SDS011;35657;51.204;-4.130;2024-02-04T12:58:01;16.65;;;4.13;;
49764;SDS011;35657;51.204;-4.130;2024-02-04T13:00:35;26.63;;;3.90;;
49764;SDS011;35657;51.204;-4.130;2024-02-04T13:03:02;20.50;;;4.28;;
49764;SDS011;35657;51.204;-4.130;2024-02-04T13:05:29;13.32;;;5.00;;
49764;SDS011;35657;51.204;-4.130;2024-02-04T13:07:59;13.32;;;4.53;;
49764;SDS011;35657;51.204;-4.130;2024-02-04T13:10:33;25.20;;;5.68;;
49764;SDS011;35657;51.204;-4.130;2024-02-04T13:15:36;15.20;;;4.15;;
49764;SDS011;35657;51.204;-4.130;2024-02-04T13:18:04;16.40;;;3.15;;
49764;SDS011;35657;51.204;-4.130;2024-02-04T13:20:30;70.13;;;37.22;;
49764;SDS011;35657;51.204;-4.130;2024-02-04T13:22:55;67.15;;;36.67;;
49764;SDS011;35657;51.204;-4.130;2024-02-04T13:25:22;32.67;;;14.68;;
49764;SDS011;35657;51.204;-4.130;2024-02-04T13:27:49;62.60;;;28.73;;
49764;SDS011;35657;51.204;-4.130;2024-02-04T13:30:16;27.92;;;13.18;;
49764;SDS011;35657;51.204;-4.130;2024-02-04T13:32:42;59.35;;;23.63;;
49764;SDS011;35657;51.204;-4.130;2024-02-04T13:35:08;33.15;;;10.90;;
49764;SDS011;35657;51.204;-4.130;2024-02-04T13:37:35;21.58;;;9.50;;
49764;SDS011;35657;51.204;-4.130;2024-02-04T13:40:02;48.42;;;22.95;;
49764;SDS011;35657;51.204;-4.130;2024-02-04T13:42:31;31.73;;;15.60;;
49764;SDS011;35657;51.204;-4.130;2024-02-04T13:44:58;20.23;;;10.48;;
49764;SDS011;35657;51.204;-4.130;2024-02-04T13:47:25;23.30;;;9.40;;
49764;SDS011;35657;51.204;-4.130;2024-02-04T13:49:51;29.95;;;15.27;;
49764;SDS011;35657;51.204;-4.130;2024-02-04T13:52:17;32.50;;;17.55;;
49764;SDS011;35657;51.204;-4.130;2024-02-04T13:54:42;26.83;;;12.52;;
49764;SDS011;35657;51.204;-4.130;2024-02-04T13:57:09;28.45;;;11.65;;
49764;SDS011;35657;51.204;-4.130;2024-02-04T13:59:34;20.35;;;8.50;;
49764;SDS011;35657;51.204;-4.130;2024-02-04T14:02:00;20.50;;;7.05;;
49764;SDS011;35657;51.204;-4.130;2024-02-04T14:04:27;25.05;;;8.30;;
49764;SDS011;35657;51.204;-4.130;2024-02-04T14:06:52;28.45;;;8.32;;
49764;SDS011;35657;51.204;-4.130;2024-02-04T14:09:18;22.10;;;6.32;;
49764;SDS011;35657;51.204;-4.130;2024-02-04T14:11:44;15.20;;;7.05;;
49764;SDS011;35657;51.204;-4.130;2024-02-04T14:14:10;23.25;;;5.15;;
49764;SDS011;35657;51.204;-4.130;2024-02-04T14:16:35;26.10;;;6.35;;
49764;SDS011;35657;51.204;-4.130;2024-02-04T14:19:01;17.33;;;5.75;;
49764;SDS011;35657;51.204;-4.130;2024-02-04T14:21:27;26.17;;;5.43;;
49764;SDS011;35657;51.204;-4.130;2024-02-04T14:23:53;15.05;;;4.78;;
49764;SDS011;35657;51.204;-4.130;2024-02-04T14:26:19;16.73;;;4.25;;
49764;SDS011;35657;51.204;-4.130;2024-02-04T14:28:46;7.82;;;2.40;;
49764;SDS011;35657;51.204;-4.130;2024-02-04T14:31:12;13.05;;;3.83;;
49764;SDS011;35657;51.204;-4.130;2024-02-04T14:33:37;14.45;;;6.05;;